sensor_id;sensor_type;location;lat;lon;timestamp;pressure;altitude;pressure_sealevel;temperature;humidity
77723;BME280;67811;42.656;23.394;2023-12-14T00:02:24;94077.94;;;4.91;83.46
77723;BME280;67811;42.656;23.394;2023-12-14T00:06:29;94058.53;;;5.00;82.90
77723;BME280;67811;42.656;23.394;2023-12-14T00:10:34;94067.38;;;4.99;83.07
77723;BME280;67811;42.656;23.394;2023-12-14T00:14:40;94073.00;;;4.96;82.86
77723;BME280;67811;42.656;23.394;2023-12-14T00:18:45;94072.41;;;4.86;83.25
77723;BME280;67811;42.656;23.394;2023-12-14T00:22:50;94070.28;;;4.81;83.89
77723;BME280;67811;42.656;23.394;2023-12-14T00:26:55;94058.53;;;5.00;82.55
77723;BME280;67811;42.656;23.394;2023-12-14T00:31:01;94066.75;;;4.97;82.50
77723;BME280;67811;42.656;23.394;2023-12-14T00:35:06;94053.28;;;5.00;82.60
77723;BME280;67811;42.656;23.394;2023-12-14T00:39:12;94077.53;;;5.02;82.13
77723;BME280;67811;42.656;23.394;2023-12-14T00:43:17;94079.06;;;4.96;82.68
77723;BME280;67811;42.656;23.394;2023-12-14T00:47:22;94090.06;;;4.92;83.23
77723;BME280;67811;42.656;23.394;2023-12-14T00:51:28;94063.75;;;4.77;83.85
77723;BME280;67811;42.656;23.394;2023-12-14T00:55:33;94067.03;;;4.79;83.73
77723;BME280;67811;42.656;23.394;2023-12-14T00:59:38;94066.56;;;4.75;83.87
77723;BME280;67811;42.656;23.394;2023-12-14T01:03:43;94066.56;;;4.75;84.22
77723;BME280;67811;42.656;23.394;2023-12-14T01:07:49;94077.53;;;4.79;84.30
77723;BME280;67811;42.656;23.394;2023-12-14T01:11:54;94036.25;;;4.73;83.96
77723;BME280;67811;42.656;23.394;2023-12-14T01:15:59;94054.22;;;4.84;83.81
77723;BME280;67811;42.656;23.394;2023-12-14T01:20:06;94074.03;;;4.87;83.66
77723;BME280;67811;42.656;23.394;2023-12-14T01:24:12;94059.97;;;4.80;83.90
77723;BME280;67811;42.656;23.394;2023-12-14T01:28:17;94034.19;;;4.83;83.76
77723;BME280;67811;42.656;23.394;2023-12-14T01:32:22;94088.78;;;4.88;83.09
77723;BME280;67811;42.656;23.394;2023-12-14T01:36:27;94082.78;;;4.79;84.21
77723;BME280;67811;42.656;23.394;2023-12-14T01:40:33;94030.75;;;4.83;83.25
77723;BME280;67811;42.656;23.394;2023-12-14T01:44:38;94076.94;;;4.92;83.28
77723;BME280;67811;42.656;23.394;2023-12-14T01:48:43;94058.09;;;4.88;83.55
77723;BME280;67811;42.656;23.394;2023-12-14T01:52:48;94041.06;;;5.07;82.01
77723;BME280;67811;42.656;23.394;2023-12-14T01:56:54;94059.78;;;5.04;82.03
77723;BME280;67811;42.656;23.394;2023-12-14T02:05:15;94056.47;;;5.10;81.61
77723;BME280;67811;42.656;23.394;2023-12-14T02:09:20;94066.81;;;5.12;81.96
77723;BME280;67811;42.656;23.394;2023-12-14T02:13:26;94051.88;;;5.12;81.87
77723;BME280;67811;42.656;23.394;2023-12-14T02:17:31;94040.59;;;5.03;82.29
77723;BME280;67811;42.656;23.394;2023-12-14T02:21:36;94010.84;;;5.11;81.70
77723;BME280;67811;42.656;23.394;2023-12-14T02:25:41;94010.09;;;5.02;82.30
77723;BME280;67811;42.656;23.394;2023-12-14T02:29:47;94022.13;;;4.97;82.54
77723;BME280;67811;42.656;23.394;2023-12-14T02:33:52;94005.25;;;4.91;82.88
77723;BME280;67811;42.656;23.394;2023-12-14T02:37:57;94042.34;;;5.11;81.84
77723;BME280;67811;42.656;23.394;2023-12-14T02:42:03;94032.66;;;5.12;81.69
77723;BME280;67811;42.656;23.394;2023-12-14T02:46:08;94021.41;;;5.03;82.17
77723;BME280;67811;42.656;23.394;2023-12-14T02:50:14;94029.38;;;4.95;82.95
77723;BME280;67811;42.656;23.394;2023-12-14T02:54:19;94053.00;;;5.10;81.92
77723;BME280;67811;42.656;23.394;2023-12-14T02:58:24;94042.00;;;5.14;82.19
77723;BME280;67811;42.656;23.394;2023-12-14T03:02:29;94042.81;;;5.15;81.50
77723;BME280;67811;42.656;23.394;2023-12-14T03:06:35;94033.34;;;5.28;81.42
77723;BME280;67811;42.656;23.394;2023-12-14T03:10:40;94040.31;;;5.36;80.70
77723;BME280;67811;42.656;23.394;2023-12-14T03:14:45;94022.38;;;5.25;81.09
77723;BME280;67811;42.656;23.394;2023-12-14T03:18:50;94030.53;;;5.30;80.33
77723;BME280;67811;42.656;23.394;2023-12-14T03:22:56;94030.06;;;5.26;80.87
77723;BME280;67811;42.656;23.394;2023-12-14T03:27:02;94025.88;;;5.17;81.42
77723;BME280;67811;42.656;23.394;2023-12-14T03:31:10;94008.75;;;5.07;82.11
77723;BME280;67811;42.656;23.394;2023-12-14T03:35:15;94013.38;;;5.19;81.23
77723;BME280;67811;42.656;23.394;2023-12-14T03:39:20;94004.22;;;5.15;81.39
77723;BME280;67811;42.656;23.394;2023-12-14T03:43:26;93997.06;;;5.09;81.82
77723;BME280;67811;42.656;23.394;2023-12-14T03:47:31;93986.66;;;5.01;82.37
77723;BME280;67811;42.656;23.394;2023-12-14T03:51:37;93987.22;;;5.26;80.84
77723;BME280;67811;42.656;23.394;2023-12-14T03:55:42;93987.84;;;5.13;81.81
77723;BME280;67811;42.656;23.394;2023-12-14T03:59:47;93978.91;;;5.22;81.92
77723;BME280;67811;42.656;23.394;2023-12-14T04:03:52;94004.50;;;5.20;80.79
77723;BME280;67811;42.656;23.394;2023-12-14T04:07:58;93989.94;;;5.18;81.59
77723;BME280;67811;42.656;23.394;2023-12-14T04:12:04;93996.69;;;4.97;82.09
77723;BME280;67811;42.656;23.394;2023-12-14T04:16:09;94008.59;;;4.85;83.33
77723;BME280;67811;42.656;23.394;2023-12-14T04:20:14;93996.72;;;5.12;81.68
77723;BME280;67811;42.656;23.394;2023-12-14T04:24:20;94019.34;;;5.13;81.70
77723;BME280;67811;42.656;23.394;2023-12-14T04:28:25;93998.38;;;5.28;81.10
77723;BME280;67811;42.656;23.394;2023-12-14T04:32:30;94009.19;;;5.10;82.29
77723;BME280;67811;42.656;23.394;2023-12-14T04:36:35;94031.06;;;5.25;81.78
77723;BME280;67811;42.656;23.394;2023-12-14T04:40:41;94010.94;;;5.18;82.03
77723;BME280;67811;42.656;23.394;2023-12-14T04:44:46;93976.44;;;5.21;81.72
77723;BME280;67811;42.656;23.394;2023-12-14T04:48:51;94011.16;;;5.46;80.22
77723;BME280;67811;42.656;23.394;2023-12-14T04:52:56;93999.47;;;5.48;80.16
77723;BME280;67811;42.656;23.394;2023-12-14T04:57:02;94020.78;;;5.39;80.82
77723;BME280;67811;42.656;23.394;2023-12-14T05:01:07;94027.53;;;5.18;81.84
77723;BME280;67811;42.656;23.394;2023-12-14T05:05:13;94010.75;;;5.19;81.88
77723;BME280;67811;42.656;23.394;2023-12-14T05:09:18;94019.41;;;5.05;82.09
77723;BME280;67811;42.656;23.394;2023-12-14T05:13:23;94011.38;;;5.07;82.65
77723;BME280;67811;42.656;23.394;2023-12-14T05:17:29;93996.44;;;5.07;82.27
77723;BME280;67811;42.656;23.394;2023-12-14T05:21:34;94008.47;;;5.16;81.68
77723;BME280;67811;42.656;23.394;2023-12-14T05:25:39;94003.66;;;5.05;82.29
77723;BME280;67811;42.656;23.394;2023-12-14T05:29:44;94007.38;;;5.11;81.54
77723;BME280;67811;42.656;23.394;2023-12-14T05:33:50;94025.13;;;5.09;82.66
77723;BME280;67811;42.656;23.394;2023-12-14T05:37:55;94005.78;;;4.87;84.00
77723;BME280;67811;42.656;23.394;2023-12-14T05:42:00;94028.66;;;5.01;82.62
77723;BME280;67811;42.656;23.394;2023-12-14T05:46:06;94025.50;;;4.83;84.02
77723;BME280;67811;42.656;23.394;2023-12-14T05:50:11;94044.03;;;5.04;83.55
77723;BME280;67811;42.656;23.394;2023-12-14T05:54:16;94026.31;;;4.83;83.98
77723;BME280;67811;42.656;23.394;2023-12-14T05:58:21;94025.03;;;5.02;83.03
77723;BME280;67811;42.656;23.394;2023-12-14T06:02:27;94015.56;;;4.78;84.04
77723;BME280;67811;42.656;23.394;2023-12-14T06:06:32;94040.44;;;4.82;84.28
77723;BME280;67811;42.656;23.394;2023-12-14T06:10:38;94046.09;;;4.94;84.50
77723;BME280;67811;42.656;23.394;2023-12-14T06:14:43;94037.09;;;4.88;84.36
77723;BME280;67811;42.656;23.394;2023-12-14T06:18:49;94050.88;;;5.13;83.18
77723;BME280;67811;42.656;23.394;2023-12-14T06:22:54;94065.84;;;5.05;83.40
77723;BME280;67811;42.656;23.394;2023-12-14T06:26:59;94063.91;;;5.21;82.67
77723;BME280;67811;42.656;23.394;2023-12-14T06:31:05;94055.75;;;5.16;82.99
77723;BME280;67811;42.656;23.394;2023-12-14T06:35:10;94071.94;;;5.43;81.89
77723;BME280;67811;42.656;23.394;2023-12-14T06:39:15;94071.03;;;5.36;82.47
77723;BME280;67811;42.656;23.394;2023-12-14T06:43:21;94082.47;;;5.58;80.35
77723;BME280;67811;42.656;23.394;2023-12-14T06:47:26;94105.50;;;5.55;80.65
77723;BME280;67811;42.656;23.394;2023-12-14T06:51:31;94089.56;;;5.57;81.14
77723;BME280;67811;42.656;23.394;2023-12-14T06:55:36;94103.66;;;5.41;80.87
77723;BME280;67811;42.656;23.394;2023-12-14T06:59:42;94105.69;;;5.69;80.29
77723;BME280;67811;42.656;23.394;2023-12-14T07:03:47;94074.09;;;5.77;79.20
77723;BME280;67811;42.656;23.394;2023-12-14T07:07:52;94101.19;;;5.77;79.75
77723;BME280;67811;42.656;23.394;2023-12-14T07:11:57;94086.47;;;6.06;78.10
77723;BME280;67811;42.656;23.394;2023-12-14T07:16:06;94090.97;;;6.42;76.59
77723;BME280;67811;42.656;23.394;2023-12-14T07:20:12;94089.50;;;6.54;76.78
77723;BME280;67811;42.656;23.394;2023-12-14T07:24:17;94122.50;;;6.71;75.20
77723;BME280;67811;42.656;23.394;2023-12-14T07:28:22;94105.50;;;6.89;75.20
77723;BME280;67811;42.656;23.394;2023-12-14T07:32:28;94113.22;;;7.11;74.12
77723;BME280;67811;42.656;23.394;2023-12-14T07:36:33;94099.75;;;7.21;74.42
77723;BME280;67811;42.656;23.394;2023-12-14T07:40:39;94115.66;;;7.34;72.41
77723;BME280;67811;42.656;23.394;2023-12-14T07:44:44;94115.91;;;7.39;72.77
77723;BME280;67811;42.656;23.394;2023-12-14T07:48:49;94115.09;;;7.60;71.54
77723;BME280;67811;42.656;23.394;2023-12-14T07:52:55;94122.41;;;7.86;71.08
77723;BME280;67811;42.656;23.394;2023-12-14T07:57:00;94123.25;;;7.93;69.89
77723;BME280;67811;42.656;23.394;2023-12-14T08:01:06;94103.03;;;8.07;71.21
77723;BME280;67811;42.656;23.394;2023-12-14T08:05:11;94125.09;;;8.28;69.32
77723;BME280;67811;42.656;23.394;2023-12-14T08:09:16;94136.47;;;9.04;68.04
77723;BME280;67811;42.656;23.394;2023-12-14T08:13:22;94131.28;;;9.70;65.28
77723;BME280;67811;42.656;23.394;2023-12-14T08:17:27;94116.66;;;9.94;62.70
77723;BME280;67811;42.656;23.394;2023-12-14T08:21:32;94126.75;;;9.18;64.83
77723;BME280;67811;42.656;23.394;2023-12-14T08:25:38;94138.09;;;9.12;65.38
77723;BME280;67811;42.656;23.394;2023-12-14T08:29:43;94136.13;;;9.34;65.99
77723;BME280;67811;42.656;23.394;2023-12-14T08:33:49;94135.06;;;9.08;65.60
77723;BME280;67811;42.656;23.394;2023-12-14T08:37:55;94141.59;;;9.26;66.02
77723;BME280;67811;42.656;23.394;2023-12-14T08:42:00;94113.38;;;9.53;65.06
77723;BME280;67811;42.656;23.394;2023-12-14T08:46:05;94136.75;;;9.42;64.80
77723;BME280;67811;42.656;23.394;2023-12-14T08:50:10;94139.03;;;9.65;64.54
77723;BME280;67811;42.656;23.394;2023-12-14T08:54:16;94137.59;;;9.69;65.18
77723;BME280;67811;42.656;23.394;2023-12-14T08:58:21;94135.78;;;9.83;64.10
77723;BME280;67811;42.656;23.394;2023-12-14T09:02:26;94142.50;;;10.12;63.23
77723;BME280;67811;42.656;23.394;2023-12-14T09:06:32;94124.94;;;10.58;62.04
77723;BME280;67811;42.656;23.394;2023-12-14T09:10:40;94130.34;;;10.89;60.91
77723;BME280;67811;42.656;23.394;2023-12-14T09:14:45;94128.75;;;10.75;60.60
77723;BME280;67811;42.656;23.394;2023-12-14T09:18:51;94122.81;;;11.24;60.26
77723;BME280;67811;42.656;23.394;2023-12-14T09:22:56;94138.13;;;10.71;61.12
77723;BME280;67811;42.656;23.394;2023-12-14T09:27:01;94091.13;;;10.98;60.14
77723;BME280;67811;42.656;23.394;2023-12-14T09:31:06;94111.03;;;10.69;60.75
77723;BME280;67811;42.656;23.394;2023-12-14T09:35:12;94118.19;;;10.62;61.24
77723;BME280;67811;42.656;23.394;2023-12-14T09:39:17;94122.03;;;10.66;60.72
77723;BME280;67811;42.656;23.394;2023-12-14T09:43:23;94120.06;;;11.06;60.03
77723;BME280;67811;42.656;23.394;2023-12-14T09:47:28;94124.44;;;11.32;59.91
77723;BME280;67811;42.656;23.394;2023-12-14T09:51:33;94132.97;;;11.34;58.71
77723;BME280;67811;42.656;23.394;2023-12-14T09:55:39;94129.09;;;11.68;58.80
77723;BME280;67811;42.656;23.394;2023-12-14T09:59:54;94130.59;;;11.89;58.69
77723;BME280;67811;42.656;23.394;2023-12-14T10:04:10;94145.03;;;12.00;56.97
77723;BME280;67811;42.656;23.394;2023-12-14T10:08:16;94126.69;;;11.92;58.36
77723;BME280;67811;42.656;23.394;2023-12-14T10:12:22;94134.19;;;12.01;57.35
77723;BME280;67811;42.656;23.394;2023-12-14T10:16:36;94131.81;;;11.93;58.00
77723;BME280;67811;42.656;23.394;2023-12-14T10:20:41;94132.34;;;12.02;57.13
77723;BME280;67811;42.656;23.394;2023-12-14T10:24:47;94138.50;;;11.96;57.81
77723;BME280;67811;42.656;23.394;2023-12-14T10:28:53;94119.94;;;11.96;57.84
77723;BME280;67811;42.656;23.394;2023-12-14T10:32:58;94128.19;;;11.88;57.58
77723;BME280;67811;42.656;23.394;2023-12-14T10:37:05;94149.19;;;11.89;57.65
77723;BME280;67811;42.656;23.394;2023-12-14T10:41:13;94145.78;;;11.82;58.03
77723;BME280;67811;42.656;23.394;2023-12-14T10:45:18;94153.94;;;11.74;57.60
77723;BME280;67811;42.656;23.394;2023-12-14T10:49:25;94153.66;;;11.57;58.35
77723;BME280;67811;42.656;23.394;2023-12-14T10:53:31;94162.81;;;11.61;58.48
77723;BME280;67811;42.656;23.394;2023-12-14T10:57:37;94180.63;;;11.47;58.74
77723;BME280;67811;42.656;23.394;2023-12-14T11:01:43;94188.84;;;11.39;58.59
77723;BME280;67811;42.656;23.394;2023-12-14T11:05:48;94194.81;;;11.28;61.17
77723;BME280;67811;42.656;23.394;2023-12-14T11:09:54;94207.31;;;11.14;65.11
77723;BME280;67811;42.656;23.394;2023-12-14T11:13:59;94202.06;;;11.01;66.94
77723;BME280;67811;42.656;23.394;2023-12-14T11:22:23;94226.81;;;10.62;68.95
77723;BME280;67811;42.656;23.394;2023-12-14T11:26:29;94231.72;;;10.45;69.52
77723;BME280;67811;42.656;23.394;2023-12-14T11:30:37;94229.84;;;10.19;68.85
77723;BME280;67811;42.656;23.394;2023-12-14T11:34:42;94244.91;;;10.05;68.49
77723;BME280;67811;42.656;23.394;2023-12-14T11:38:48;94234.09;;;9.80;68.53
77723;BME280;67811;42.656;23.394;2023-12-14T11:42:59;94242.41;;;9.70;68.30
77723;BME280;67811;42.656;23.394;2023-12-14T11:47:04;94236.69;;;9.67;68.03
77723;BME280;67811;42.656;23.394;2023-12-14T11:51:10;94240.91;;;9.41;68.35
77723;BME280;67811;42.656;23.394;2023-12-14T11:55:15;94255.28;;;9.32;68.64
77723;BME280;67811;42.656;23.394;2023-12-14T11:59:20;94278.44;;;9.23;68.68
77723;BME280;67811;42.656;23.394;2023-12-14T12:03:26;94294.88;;;9.12;68.22
77723;BME280;67811;42.656;23.394;2023-12-14T12:07:37;94282.09;;;8.88;68.84
77723;BME280;67811;42.656;23.394;2023-12-14T12:11:42;94295.47;;;8.80;69.23
77723;BME280;67811;42.656;23.394;2023-12-14T12:15:48;94282.84;;;8.75;69.65
77723;BME280;67811;42.656;23.394;2023-12-14T12:19:53;94295.56;;;8.65;69.90
77723;BME280;67811;42.656;23.394;2023-12-14T12:23:58;94264.06;;;8.63;69.90
77723;BME280;67811;42.656;23.394;2023-12-14T12:28:04;94285.38;;;8.62;69.66
77723;BME280;67811;42.656;23.394;2023-12-14T12:32:09;94288.53;;;8.51;69.86
77723;BME280;67811;42.656;23.394;2023-12-14T12:36:14;94266.25;;;8.53;69.74
77723;BME280;67811;42.656;23.394;2023-12-14T12:40:21;94287.47;;;8.45;70.19
77723;BME280;67811;42.656;23.394;2023-12-14T12:44:26;94306.59;;;8.47;70.05
77723;BME280;67811;42.656;23.394;2023-12-14T12:48:31;94290.44;;;8.35;70.15
77723;BME280;67811;42.656;23.394;2023-12-14T12:52:37;94294.81;;;8.28;70.67
77723;BME280;67811;42.656;23.394;2023-12-14T12:56:42;94296.66;;;8.28;70.71
77723;BME280;67811;42.656;23.394;2023-12-14T13:00:47;94308.16;;;8.20;71.35
77723;BME280;67811;42.656;23.394;2023-12-14T13:04:53;94302.75;;;8.07;72.04
77723;BME280;67811;42.656;23.394;2023-12-14T13:08:58;94298.22;;;8.01;72.45
77723;BME280;67811;42.656;23.394;2023-12-14T13:13:04;94300.44;;;7.97;72.12
77723;BME280;67811;42.656;23.394;2023-12-14T13:17:09;94288.81;;;7.91;72.98
77723;BME280;67811;42.656;23.394;2023-12-14T13:21:15;94307.19;;;7.85;72.81
77723;BME280;67811;42.656;23.394;2023-12-14T13:25:20;94318.94;;;7.82;73.11
77723;BME280;67811;42.656;23.394;2023-12-14T13:29:25;94306.31;;;7.78;73.24
77723;BME280;67811;42.656;23.394;2023-12-14T13:33:31;94308.06;;;7.71;73.02
77723;BME280;67811;42.656;23.394;2023-12-14T13:37:36;94314.78;;;7.73;72.80
77723;BME280;67811;42.656;23.394;2023-12-14T13:41:41;94308.63;;;7.66;72.76
77723;BME280;67811;42.656;23.394;2023-12-14T13:45:47;94307.34;;;7.62;73.09
77723;BME280;67811;42.656;23.394;2023-12-14T13:49:52;94300.19;;;7.56;72.92
77723;BME280;67811;42.656;23.394;2023-12-14T13:53:57;94307.56;;;7.46;72.58
77723;BME280;67811;42.656;23.394;2023-12-14T13:58:02;94317.84;;;7.40;72.90
77723;BME280;67811;42.656;23.394;2023-12-14T14:02:08;94322.31;;;7.40;72.41
77723;BME280;67811;42.656;23.394;2023-12-14T14:06:13;94322.84;;;7.35;72.20
77723;BME280;67811;42.656;23.394;2023-12-14T14:10:19;94323.44;;;7.31;72.21
77723;BME280;67811;42.656;23.394;2023-12-14T14:14:24;94316.16;;;7.33;71.62
77723;BME280;67811;42.656;23.394;2023-12-14T14:18:30;94326.13;;;7.23;71.97
77723;BME280;67811;42.656;23.394;2023-12-14T14:22:36;94320.94;;;7.29;71.59
77723;BME280;67811;42.656;23.394;2023-12-14T14:26:42;94318.22;;;7.37;71.22
77723;BME280;67811;42.656;23.394;2023-12-14T14:30:48;94330.59;;;7.37;70.74
77723;BME280;67811;42.656;23.394;2023-12-14T14:34:53;94323.50;;;7.37;70.28
77723;BME280;67811;42.656;23.394;2023-12-14T14:38:58;94353.50;;;7.36;70.79
77723;BME280;67811;42.656;23.394;2023-12-14T14:43:04;94364.47;;;7.40;70.32
77723;BME280;67811;42.656;23.394;2023-12-14T14:47:09;94340.13;;;7.53;69.58
77723;BME280;67811;42.656;23.394;2023-12-14T14:51:14;94324.47;;;7.51;69.91
77723;BME280;67811;42.656;23.394;2023-12-14T14:55:20;94351.03;;;7.50;70.56
77723;BME280;67811;42.656;23.394;2023-12-14T14:59:25;94334.47;;;7.56;70.21
77723;BME280;67811;42.656;23.394;2023-12-14T15:03:30;94344.00;;;7.57;69.96
77723;BME280;67811;42.656;23.394;2023-12-14T15:07:36;94337.28;;;7.54;69.92
77723;BME280;67811;42.656;23.394;2023-12-14T15:11:41;94328.38;;;7.55;70.02
77723;BME280;67811;42.656;23.394;2023-12-14T15:15:46;94335.28;;;7.56;70.15
77723;BME280;67811;42.656;23.394;2023-12-14T15:19:52;94342.19;;;7.57;70.24
77723;BME280;67811;42.656;23.394;2023-12-14T15:23:57;94352.09;;;7.55;70.81
77723;BME280;67811;42.656;23.394;2023-12-14T15:28:02;94343.47;;;7.47;71.28
77723;BME280;67811;42.656;23.394;2023-12-14T15:32:07;94339.94;;;7.39;71.45
77723;BME280;67811;42.656;23.394;2023-12-14T15:36:13;94352.41;;;7.31;72.13
77723;BME280;67811;42.656;23.394;2023-12-14T15:40:18;94355.41;;;7.28;72.66
77723;BME280;67811;42.656;23.394;2023-12-14T15:44:23;94365.31;;;7.26;72.94
77723;BME280;67811;42.656;23.394;2023-12-14T15:48:28;94386.94;;;7.21;72.99
77723;BME280;67811;42.656;23.394;2023-12-14T15:52:34;94395.84;;;7.20;74.00
77723;BME280;67811;42.656;23.394;2023-12-14T15:56:39;94396.13;;;7.25;73.63
77723;BME280;67811;42.656;23.394;2023-12-14T16:00:44;94381.19;;;7.18;74.28
77723;BME280;67811;42.656;23.394;2023-12-14T16:04:50;94377.13;;;7.15;74.62
77723;BME280;67811;42.656;23.394;2023-12-14T16:08:55;94392.81;;;7.08;75.48
77723;BME280;67811;42.656;23.394;2023-12-14T16:13:00;94412.16;;;7.01;76.26
77723;BME280;67811;42.656;23.394;2023-12-14T16:17:05;94408.97;;;6.91;77.05
77723;BME280;67811;42.656;23.394;2023-12-14T16:21:11;94402.25;;;6.88;77.32
77723;BME280;67811;42.656;23.394;2023-12-14T16:25:16;94407.56;;;6.80;78.70
77723;BME280;67811;42.656;23.394;2023-12-14T16:29:21;94416.56;;;6.71;80.72
77723;BME280;67811;42.656;23.394;2023-12-14T16:33:27;94430.66;;;6.55;82.21
77723;BME280;67811;42.656;23.394;2023-12-14T16:37:32;94426.25;;;6.47;83.63
77723;BME280;67811;42.656;23.394;2023-12-14T16:41:37;94444.97;;;6.52;84.31
77723;BME280;67811;42.656;23.394;2023-12-14T16:45:42;94436.50;;;6.42;85.07
77723;BME280;67811;42.656;23.394;2023-12-14T16:49:48;94469.94;;;6.33;86.75
77723;BME280;67811;42.656;23.394;2023-12-14T16:53:53;94479.19;;;6.29;87.19
77723;BME280;67811;42.656;23.394;2023-12-14T16:57:58;94492.22;;;6.23;88.43
77723;BME280;67811;42.656;23.394;2023-12-14T17:02:04;94503.41;;;6.17;89.79
77723;BME280;67811;42.656;23.394;2023-12-14T17:06:09;94510.19;;;6.11;91.30
77723;BME280;67811;42.656;23.394;2023-12-14T17:10:14;94513.81;;;6.10;92.35
77723;BME280;67811;42.656;23.394;2023-12-14T17:14:19;94521.41;;;6.05;93.14
77723;BME280;67811;42.656;23.394;2023-12-14T17:18:25;94521.09;;;5.92;94.01
77723;BME280;67811;42.656;23.394;2023-12-14T17:22:30;94535.38;;;5.89;94.59
77723;BME280;67811;42.656;23.394;2023-12-14T17:26:36;94547.88;;;5.87;95.21
77723;BME280;67811;42.656;23.394;2023-12-14T17:30:41;94537.19;;;5.89;95.80
77723;BME280;67811;42.656;23.394;2023-12-14T17:34:47;94538.03;;;5.89;96.51
77723;BME280;67811;42.656;23.394;2023-12-14T17:38:52;94549.53;;;5.88;97.37
77723;BME280;67811;42.656;23.394;2023-12-14T17:42:57;94560.69;;;5.82;97.88
77723;BME280;67811;42.656;23.394;2023-12-14T17:47:03;94566.44;;;5.86;98.13
77723;BME280;67811;42.656;23.394;2023-12-14T17:51:08;94565.94;;;5.90;97.86
77723;BME280;67811;42.656;23.394;2023-12-14T17:55:14;94584.84;;;5.86;98.60
77723;BME280;67811;42.656;23.394;2023-12-14T17:59:19;94591.28;;;5.83;98.77
77723;BME280;67811;42.656;23.394;2023-12-14T18:03:24;94573.34;;;5.87;99.02
77723;BME280;67811;42.656;23.394;2023-12-14T18:07:30;94592.56;;;5.87;98.02
77723;BME280;67811;42.656;23.394;2023-12-14T18:11:36;94588.16;;;5.79;98.44
77723;BME280;67811;42.656;23.394;2023-12-14T18:15:41;94587.66;;;5.84;98.59
77723;BME280;67811;42.656;23.394;2023-12-14T18:19:46;94577.31;;;5.82;98.61
77723;BME280;67811;42.656;23.394;2023-12-14T18:23:52;94581.75;;;5.74;98.90
77723;BME280;67811;42.656;23.394;2023-12-14T18:27:57;94595.09;;;5.72;99.20
77723;BME280;67811;42.656;23.394;2023-12-14T18:32:02;94584.06;;;5.69;99.47
77723;BME280;67811;42.656;23.394;2023-12-14T18:36:08;94588.78;;;5.81;100.00
77723;BME280;67811;42.656;23.394;2023-12-14T18:40:13;94598.81;;;6.02;100.00
77723;BME280;67811;42.656;23.394;2023-12-14T18:44:19;94592.25;;;5.82;99.71
77723;BME280;67811;42.656;23.394;2023-12-14T18:48:24;94584.88;;;5.77;99.44
77723;BME280;67811;42.656;23.394;2023-12-14T18:52:29;94582.75;;;5.73;99.51
77723;BME280;67811;42.656;23.394;2023-12-14T18:56:34;94591.31;;;5.67;99.67
77723;BME280;67811;42.656;23.394;2023-12-14T19:00:40;94580.31;;;5.63;100.00
77723;BME280;67811;42.656;23.394;2023-12-14T19:04:45;94600.69;;;5.61;99.84
77723;BME280;67811;42.656;23.394;2023-12-14T19:08:50;94604.59;;;5.65;99.95
77723;BME280;67811;42.656;23.394;2023-12-14T19:12:56;94603.47;;;5.68;100.00
77723;BME280;67811;42.656;23.394;2023-12-14T19:17:01;94610.19;;;5.70;99.42
77723;BME280;67811;42.656;23.394;2023-12-14T19:21:06;94606.25;;;5.66;99.65
77723;BME280;67811;42.656;23.394;2023-12-14T19:25:11;94628.94;;;5.67;100.00
77723;BME280;67811;42.656;23.394;2023-12-14T19:29:17;94648.97;;;5.68;100.00
77723;BME280;67811;42.656;23.394;2023-12-14T19:33:22;94652.91;;;5.64;100.00
77723;BME280;67811;42.656;23.394;2023-12-14T19:37:28;94664.72;;;5.68;100.00
77723;BME280;67811;42.656;23.394;2023-12-14T19:41:33;94669.66;;;5.63;100.00
77723;BME280;67811;42.656;23.394;2023-12-14T19:45:38;94658.84;;;5.66;100.00
77723;BME280;67811;42.656;23.394;2023-12-14T19:49:44;94673.75;;;5.66;100.00
77723;BME280;67811;42.656;23.394;2023-12-14T19:53:49;94686.59;;;5.61;99.29
77723;BME280;67811;42.656;23.394;2023-12-14T19:57:54;94703.19;;;5.61;99.15
77723;BME280;67811;42.656;23.394;2023-12-14T20:01:59;94716.47;;;5.60;99.41
77723;BME280;67811;42.656;23.394;2023-12-14T20:06:05;94717.63;;;5.57;98.85
77723;BME280;67811;42.656;23.394;2023-12-14T20:10:10;94713.19;;;5.58;98.31
77723;BME280;67811;42.656;23.394;2023-12-14T20:14:16;94693.50;;;5.62;99.06
77723;BME280;67811;42.656;23.394;2023-12-14T20:18:21;94705.31;;;5.58;98.13
77723;BME280;67811;42.656;23.394;2023-12-14T20:22:26;94721.41;;;5.63;97.54
77723;BME280;67811;42.656;23.394;2023-12-14T20:26:32;94743.56;;;5.60;97.28
77723;BME280;67811;42.656;23.394;2023-12-14T20:30:37;94727.50;;;5.63;97.87
77723;BME280;67811;42.656;23.394;2023-12-14T20:34:43;94708.41;;;5.53;97.75
77723;BME280;67811;42.656;23.394;2023-12-14T20:38:48;94704.81;;;5.62;97.87
77723;BME280;67811;42.656;23.394;2023-12-14T20:42:53;94689.06;;;5.62;96.65
77723;BME280;67811;42.656;23.394;2023-12-14T20:46:59;94705.81;;;5.61;96.90
77723;BME280;67811;42.656;23.394;2023-12-14T20:51:04;94704.34;;;5.67;97.00
77723;BME280;67811;42.656;23.394;2023-12-14T20:55:10;94720.44;;;5.72;96.99
77723;BME280;67811;42.656;23.394;2023-12-14T20:59:16;94742.63;;;5.61;95.75
77723;BME280;67811;42.656;23.394;2023-12-14T21:03:21;94752.09;;;5.54;94.98
77723;BME280;67811;42.656;23.394;2023-12-14T21:07:27;94761.47;;;5.48;94.93
77723;BME280;67811;42.656;23.394;2023-12-14T21:11:32;94757.66;;;5.35;95.26
77723;BME280;67811;42.656;23.394;2023-12-14T21:15:37;94767.84;;;5.38;94.23
77723;BME280;67811;42.656;23.394;2023-12-14T21:19:51;94767.19;;;5.44;95.09
77723;BME280;67811;42.656;23.394;2023-12-14T21:23:56;94779.06;;;5.56;92.89
77723;BME280;67811;42.656;23.394;2023-12-14T21:28:01;94752.94;;;5.54;93.27
77723;BME280;67811;42.656;23.394;2023-12-14T21:32:07;94758.03;;;5.56;92.85
77723;BME280;67811;42.656;23.394;2023-12-14T21:36:13;94755.38;;;5.48;93.26
77723;BME280;67811;42.656;23.394;2023-12-14T21:40:18;94769.50;;;5.47;94.08
77723;BME280;67811;42.656;23.394;2023-12-14T21:44:23;94777.56;;;5.45;94.24